createdAt,value
2018-07-20T00:01:16.034Z,10.47
2018-07-20T00:03:43.592Z,10.60
2018-07-20T00:06:11.954Z,9.93
2018-07-20T00:08:39.512Z,10.13
2018-07-20T00:11:07.084Z,9.47
2018-07-20T00:13:34.630Z,10.07
2018-07-20T00:16:02.202Z,11.17
2018-07-20T00:18:29.795Z,10.07
2018-07-20T00:20:57.364Z,11.00
2018-07-20T00:23:24.837Z,11.50
2018-07-20T00:25:52.396Z,12.40
2018-07-20T00:28:19.947Z,10.53
2018-07-20T00:30:47.566Z,9.97
2018-07-20T00:33:15.142Z,11.40
2018-07-20T00:35:42.794Z,11.97
2018-07-20T00:38:10.373Z,12.20
2018-07-20T00:40:37.936Z,11.77
2018-07-20T00:43:05.521Z,11.87
2018-07-20T00:45:33.135Z,11.60
2018-07-20T00:48:00.684Z,11.67
2018-07-20T00:50:28.302Z,13.50
2018-07-20T00:52:55.842Z,13.47
2018-07-20T00:55:23.461Z,11.87
2018-07-20T00:57:51.203Z,12.77
2018-07-20T01:00:18.733Z,13.27
2018-07-20T01:02:46.309Z,11.37
2018-07-20T01:05:13.883Z,11.20
2018-07-20T01:07:41.379Z,12.37
2018-07-20T01:10:08.965Z,11.50
2018-07-20T01:12:36.601Z,11.80
2018-07-20T01:15:04.335Z,11.73
2018-07-20T01:17:31.869Z,13.00
2018-07-20T01:19:59.549Z,11.83
2018-07-20T01:22:27.085Z,12.50
2018-07-20T01:24:54.531Z,12.17
2018-07-20T01:27:22.154Z,11.27
2018-07-20T01:29:49.710Z,11.67
2018-07-20T01:32:17.272Z,11.27
2018-07-20T01:34:44.762Z,11.60
2018-07-20T01:37:12.329Z,12.13
2018-07-20T01:39:39.885Z,12.67
2018-07-20T01:42:07.744Z,11.87
2018-07-20T01:44:35.347Z,12.33
2018-07-20T01:47:02.904Z,13.23
2018-07-20T01:49:30.472Z,13.43
2018-07-20T01:51:58.098Z,12.47
2018-07-20T01:54:25.680Z,12.00
2018-07-20T01:56:53.200Z,12.90
2018-07-20T01:59:20.705Z,12.67
2018-07-20T02:01:48.232Z,12.23
2018-07-20T02:04:15.797Z,13.13
2018-07-20T02:06:43.376Z,13.30
2018-07-20T02:09:11.468Z,11.33
2018-07-20T02:11:38.998Z,12.43
2018-07-20T02:14:06.622Z,11.60
2018-07-20T02:16:34.220Z,11.43
2018-07-20T02:19:01.802Z,12.30
2018-07-20T02:21:29.661Z,12.30
2018-07-20T02:23:57.218Z,12.77
2018-07-20T02:26:24.782Z,13.87
2018-07-20T02:28:52.245Z,12.97
2018-07-20T02:31:19.772Z,12.20
2018-07-20T02:33:47.350Z,12.77
2018-07-20T02:36:14.932Z,12.83
2018-07-20T02:38:42.494Z,12.40
2018-07-20T02:41:10.044Z,13.20
2018-07-20T02:43:37.612Z,13.27
2018-07-20T02:46:05.396Z,14.03
2018-07-20T02:48:32.955Z,11.53
2018-07-20T02:53:34.706Z,13.57
2018-07-20T02:56:02.405Z,12.67
2018-07-20T02:58:29.967Z,13.50
2018-07-20T03:00:57.540Z,13.00
2018-07-20T03:03:25.095Z,13.33
2018-07-20T03:05:52.667Z,13.57
2018-07-20T03:08:20.239Z,13.47
2018-07-20T03:10:47.820Z,11.17
2018-07-20T03:13:15.355Z,12.00
2018-07-20T03:15:42.910Z,11.77
2018-07-20T03:18:10.491Z,12.80
2018-07-20T03:20:38.035Z,12.50
2018-07-20T03:23:05.686Z,12.53
2018-07-20T03:25:33.273Z,13.10
2018-07-20T03:28:00.882Z,11.23
2018-07-20T03:30:28.435Z,11.83
2018-07-20T03:32:56.110Z,12.30
2018-07-20T03:35:23.524Z,12.43
2018-07-20T03:37:51.055Z,11.47
2018-07-20T03:40:18.633Z,11.47
2018-07-20T03:42:46.197Z,10.27
2018-07-20T03:45:13.783Z,11.57
2018-07-20T03:47:41.361Z,10.60
2018-07-20T03:50:08.962Z,10.73
2018-07-20T03:52:36.539Z,10.93
2018-07-20T03:55:04.324Z,11.47
2018-07-20T03:57:31.933Z,9.57
2018-07-20T03:59:59.533Z,11.17
2018-07-20T04:02:27.157Z,13.10
2018-07-20T04:04:54.716Z,11.40
2018-07-20T04:07:22.320Z,13.33
2018-07-20T04:09:49.864Z,11.67
2018-07-20T04:12:17.608Z,12.83
2018-07-20T04:14:45.193Z,11.40
2018-07-20T04:17:12.744Z,11.83
2018-07-20T04:19:40.284Z,12.60
2018-07-20T04:22:07.856Z,11.13
2018-07-20T04:24:35.466Z,13.20
2018-07-20T04:27:03.112Z,12.90
2018-07-20T04:29:30.684Z,11.80
2018-07-20T04:31:58.261Z,11.37
2018-07-20T04:34:25.856Z,12.40
2018-07-20T04:36:53.429Z,12.70
2018-07-20T04:39:21.030Z,11.60
2018-07-20T04:41:48.583Z,11.77
2018-07-20T04:44:16.179Z,12.73
2018-07-20T04:46:43.726Z,12.13
2018-07-20T04:49:11.290Z,10.30
2018-07-20T04:51:38.877Z,13.40
2018-07-20T04:54:06.478Z,12.77
2018-07-20T04:56:34.046Z,11.70
2018-07-20T04:59:01.642Z,13.30
2018-07-20T05:01:29.245Z,11.43
2018-07-20T05:03:56.854Z,12.57
2018-07-20T05:06:24.388Z,11.43
2018-07-20T05:08:51.997Z,12.80
2018-07-20T05:11:19.580Z,12.43
2018-07-20T05:13:47.153Z,12.03
2018-07-20T05:16:14.701Z,10.70
2018-07-20T05:18:42.275Z,11.37
2018-07-20T05:21:09.835Z,12.10
2018-07-20T05:23:37.673Z,9.50
2018-07-20T05:26:05.330Z,12.37
2018-07-20T05:28:32.954Z,12.17
2018-07-20T05:31:00.620Z,11.03
2018-07-20T05:33:28.110Z,10.77
2018-07-20T05:35:55.658Z,10.57
2018-07-20T05:38:23.157Z,11.83
2018-07-20T05:40:50.768Z,9.83
2018-07-20T05:43:18.351Z,9.63
2018-07-20T05:45:46.177Z,9.13
2018-07-20T05:48:13.773Z,9.23
2018-07-20T05:50:41.383Z,9.03
2018-07-20T05:53:08.989Z,9.40
2018-07-20T05:55:36.628Z,9.63
2018-07-20T05:58:04.233Z,8.90
2018-07-20T06:00:31.802Z,10.00
2018-07-20T06:02:59.390Z,9.10
2018-07-20T06:05:26.987Z,9.50
2018-07-20T06:07:54.559Z,8.40
2018-07-20T06:10:22.304Z,9.40
2018-07-20T06:12:49.864Z,8.60
2018-07-20T06:15:18.190Z,9.20
2018-07-20T06:17:46.018Z,8.03
2018-07-20T06:20:13.591Z,9.20
2018-07-20T06:22:41.188Z,8.87
2018-07-20T06:25:08.836Z,8.57
2018-07-20T06:27:36.400Z,9.00
2018-07-20T06:30:04.935Z,7.70
2018-07-20T06:32:32.513Z,8.73
2018-07-20T06:35:00.078Z,9.17
2018-07-20T06:37:27.670Z,7.47
2018-07-20T06:39:55.232Z,8.07
2018-07-20T06:42:22.880Z,8.27
2018-07-20T06:44:50.519Z,7.83
2018-07-20T06:47:18.117Z,9.03
2018-07-20T06:49:45.753Z,8.87
2018-07-20T06:52:13.329Z,8.17
2018-07-20T06:54:41.016Z,9.50
2018-07-20T06:57:08.553Z,12.50
2018-07-20T06:59:36.145Z,7.93
2018-07-20T07:02:03.801Z,7.97
2018-07-20T07:04:31.326Z,8.83
2018-07-20T07:06:58.943Z,27.87
2018-07-20T07:09:26.517Z,8.10
2018-07-20T07:11:53.993Z,8.90
2018-07-20T07:14:21.603Z,7.70
2018-07-20T07:16:49.133Z,8.50
2018-07-20T07:19:16.703Z,7.67
2018-07-20T07:21:44.275Z,7.87
2018-07-20T07:24:11.867Z,8.07
2018-07-20T07:26:39.507Z,8.00
2018-07-20T07:29:07.122Z,8.23
2018-07-20T07:31:34.721Z,7.57
2018-07-20T07:34:02.249Z,7.97
2018-07-20T07:36:29.763Z,6.90
2018-07-20T07:38:57.305Z,6.77
2018-07-20T07:41:24.788Z,6.60
2018-07-20T07:43:52.365Z,6.93
2018-07-20T07:46:19.995Z,6.77
2018-07-20T07:48:47.710Z,7.43
2018-07-20T07:51:15.247Z,7.30
2018-07-20T07:53:42.849Z,7.50
2018-07-20T07:56:10.507Z,6.27
2018-07-20T07:58:38.197Z,6.13
2018-07-20T08:01:05.879Z,6.40
2018-07-20T08:03:33.490Z,7.07
2018-07-20T08:06:01.068Z,6.70
2018-07-20T08:08:28.634Z,6.93
2018-07-20T08:10:56.191Z,6.90
2018-07-20T08:13:23.792Z,6.23
2018-07-20T08:15:51.390Z,7.37
2018-07-20T08:18:19.022Z,7.87
2018-07-20T08:20:46.754Z,7.90
2018-07-20T08:23:14.309Z,7.63
2018-07-20T08:25:41.844Z,7.50
2018-07-20T08:28:09.452Z,6.87
2018-07-20T08:30:37.006Z,7.47
2018-07-20T08:33:04.997Z,7.20
2018-07-20T08:35:32.839Z,6.67
2018-07-20T08:38:00.418Z,7.50
2018-07-20T08:40:28.057Z,6.57
2018-07-20T08:42:55.631Z,6.87
2018-07-20T08:45:23.260Z,5.80
2018-07-20T08:47:50.840Z,5.27
2018-07-20T08:50:18.445Z,5.93
2018-07-20T08:52:46.184Z,7.17
2018-07-20T08:55:13.765Z,6.57
2018-07-20T08:57:41.355Z,7.10
2018-07-20T09:00:08.965Z,6.90
2018-07-20T09:02:36.594Z,6.77
2018-07-20T09:05:04.482Z,6.83
2018-07-20T09:07:32.067Z,6.90
2018-07-20T09:09:59.644Z,7.10
2018-07-20T09:12:27.197Z,7.30
2018-07-20T09:14:54.756Z,6.20
2018-07-20T09:17:22.290Z,6.33
2018-07-20T09:19:49.872Z,5.70
2018-07-20T09:22:17.459Z,5.90
2018-07-20T09:24:45.040Z,6.97
2018-07-20T09:27:12.575Z,6.23
2018-07-20T09:29:40.171Z,6.73
2018-07-20T09:32:07.765Z,6.77
2018-07-20T09:34:35.428Z,6.53
2018-07-20T09:37:02.980Z,6.57
2018-07-20T09:39:30.575Z,6.33
2018-07-20T09:41:58.150Z,5.67
2018-07-20T09:44:25.737Z,5.30
2018-07-20T09:46:53.363Z,5.33
2018-07-20T09:49:20.906Z,5.13
2018-07-20T09:51:48.474Z,4.90
2018-07-20T09:54:16.108Z,5.20
2018-07-20T09:56:43.726Z,7.00
2018-07-20T09:59:11.365Z,5.27
2018-07-20T10:01:38.963Z,5.30
2018-07-20T10:04:06.543Z,4.80
2018-07-20T10:06:34.423Z,4.57
2018-07-20T10:09:01.957Z,5.20
2018-07-20T10:11:29.529Z,4.70
2018-07-20T10:13:57.053Z,4.10
2018-07-20T10:16:24.616Z,4.37
2018-07-20T10:18:52.213Z,4.50
2018-07-20T10:21:19.769Z,4.00
2018-07-20T10:23:47.357Z,4.23
2018-07-20T10:26:14.971Z,4.47
2018-07-20T10:28:42.526Z,4.10
2018-07-20T10:31:10.144Z,4.30
2018-07-20T10:33:37.697Z,3.37
2018-07-20T10:36:05.306Z,4.20
2018-07-20T10:38:32.970Z,4.43
2018-07-20T10:41:00.425Z,4.27
2018-07-20T10:43:28.053Z,4.20
2018-07-20T10:45:55.622Z,4.07
2018-07-20T10:48:23.189Z,4.70
2018-07-20T10:50:50.792Z,4.97
2018-07-20T10:53:18.330Z,4.43
2018-07-20T10:55:45.877Z,3.80
2018-07-20T10:58:13.456Z,4.47
2018-07-20T11:00:41.038Z,3.90
2018-07-20T11:03:08.665Z,5.10
2018-07-20T11:05:36.330Z,3.43
2018-07-20T11:08:03.982Z,3.27
2018-07-20T11:10:31.522Z,3.83
2018-07-20T11:13:03.502Z,4.10
2018-07-20T11:15:31.054Z,3.90
2018-07-20T11:17:58.604Z,4.00
2018-07-20T11:20:26.966Z,4.27
2018-07-20T11:22:54.558Z,3.90
2018-07-20T11:25:22.323Z,3.67
2018-07-20T11:27:49.923Z,3.70
2018-07-20T11:30:17.531Z,4.47
2018-07-20T11:32:45.149Z,3.50
2018-07-20T11:35:12.747Z,3.90
2018-07-20T11:37:40.422Z,4.10
2018-07-20T11:40:08.105Z,4.23
2018-07-20T11:42:35.627Z,3.80
2018-07-20T11:45:03.352Z,4.10
2018-07-20T11:47:30.848Z,4.17
2018-07-20T11:49:58.419Z,3.97
2018-07-20T11:52:25.992Z,4.27
2018-07-20T11:54:53.617Z,4.20
2018-07-20T11:57:21.259Z,4.37
2018-07-20T11:59:48.803Z,4.63
2018-07-20T12:02:16.403Z,4.87
2018-07-20T12:04:43.939Z,4.50
2018-07-20T12:07:11.546Z,3.87
2018-07-20T12:09:39.153Z,4.00
2018-07-20T12:12:06.749Z,4.90
2018-07-20T12:14:34.323Z,4.10
2018-07-20T12:17:01.907Z,3.90
2018-07-20T12:19:29.523Z,4.37
2018-07-20T12:21:57.169Z,4.23
2018-07-20T12:24:24.765Z,4.40
2018-07-20T12:26:52.365Z,4.80
2018-07-20T12:29:20.041Z,4.40
2018-07-20T12:31:47.629Z,4.50
2018-07-20T12:34:15.248Z,4.40
2018-07-20T12:36:42.881Z,4.63
2018-07-20T12:39:11.156Z,4.00
2018-07-20T12:41:39.095Z,4.60
2018-07-20T12:44:06.691Z,4.17
2018-07-20T12:46:34.400Z,3.90
2018-07-20T12:49:01.925Z,4.07
2018-07-20T12:51:29.497Z,4.27
2018-07-20T12:54:03.641Z,4.27
2018-07-20T12:56:31.181Z,3.73
2018-07-20T12:58:58.788Z,4.07
2018-07-20T13:01:26.341Z,5.17
2018-07-20T13:03:53.913Z,4.03
2018-07-20T13:06:21.503Z,4.00
2018-07-20T13:08:49.069Z,4.30
2018-07-20T13:11:16.856Z,4.97
2018-07-20T13:13:44.398Z,4.27
2018-07-20T13:16:11.988Z,4.60
2018-07-20T13:21:13.932Z,5.20
2018-07-20T13:23:41.419Z,4.67
2018-07-20T13:26:09.029Z,4.80
2018-07-20T13:28:36.593Z,4.03
2018-07-20T13:31:04.189Z,4.93
2018-07-20T13:33:31.764Z,4.60
2018-07-20T13:35:59.350Z,4.13
2018-07-20T13:38:26.923Z,4.23
2018-07-20T13:40:54.490Z,4.00
2018-07-20T13:43:22.070Z,4.60
2018-07-20T13:45:49.697Z,4.53
2018-07-20T13:48:17.354Z,4.70
2018-07-20T13:50:44.915Z,4.20
2018-07-20T13:53:12.514Z,5.00
2018-07-20T13:55:40.116Z,4.27
2018-07-20T13:58:07.744Z,4.23
2018-07-20T14:00:35.382Z,4.40
2018-07-20T14:03:02.976Z,4.20
2018-07-20T14:05:30.721Z,4.17
2018-07-20T14:07:58.305Z,4.53
2018-07-20T14:10:25.863Z,4.57
2018-07-20T14:12:53.465Z,4.33
2018-07-20T14:15:21.042Z,4.27
2018-07-20T14:17:48.627Z,4.90
2018-07-20T14:20:16.322Z,4.70
2018-07-20T14:22:43.919Z,4.90
2018-07-20T14:25:11.498Z,3.60
2018-07-20T14:27:39.077Z,4.30
2018-07-20T14:30:06.699Z,4.20
2018-07-20T14:32:34.328Z,4.93
2018-07-20T14:35:01.906Z,3.93
2018-07-20T14:37:29.462Z,4.10
2018-07-20T14:39:57.102Z,4.93
2018-07-20T14:42:24.661Z,5.17
2018-07-20T14:44:52.193Z,4.70
2018-07-20T14:47:19.896Z,4.63
2018-07-20T14:49:47.533Z,4.67
2018-07-20T14:52:15.095Z,4.70
2018-07-20T14:54:42.736Z,3.87
2018-07-20T14:57:10.311Z,4.47
2018-07-20T14:59:37.923Z,4.73
2018-07-20T15:02:05.593Z,4.40
2018-07-20T15:04:33.163Z,5.37
2018-07-20T15:07:00.765Z,4.77
2018-07-20T15:09:28.371Z,5.13
2018-07-20T15:11:55.979Z,4.70
2018-07-20T15:14:23.552Z,4.90
2018-07-20T15:16:51.114Z,4.27
2018-07-20T15:19:18.702Z,4.10
2018-07-20T15:21:46.362Z,4.73
2018-07-20T15:24:13.959Z,4.50
2018-07-20T15:26:41.506Z,4.40
2018-07-20T15:29:09.113Z,4.67
2018-07-20T15:31:36.667Z,4.90
2018-07-20T15:34:04.259Z,4.60
2018-07-20T15:36:31.831Z,4.60
2018-07-20T15:38:59.368Z,4.70
2018-07-20T15:41:26.900Z,4.50
2018-07-20T15:43:54.546Z,3.80
2018-07-20T15:46:22.138Z,4.37
2018-07-20T15:48:49.765Z,4.60
2018-07-20T15:51:17.321Z,4.60
2018-07-20T15:53:44.912Z,4.77
2018-07-20T15:56:12.449Z,4.80
2018-07-20T15:58:39.984Z,4.77
2018-07-20T16:01:07.596Z,4.40
2018-07-20T16:03:35.227Z,4.80
2018-07-20T16:06:02.895Z,4.97
2018-07-20T16:08:30.430Z,4.20
2018-07-20T16:10:58.488Z,4.87
2018-07-20T16:13:26.091Z,5.03
2018-07-20T16:15:53.688Z,4.60
2018-07-20T16:18:21.281Z,6.67
2018-07-20T16:20:48.809Z,12.70
2018-07-20T16:23:16.419Z,7.10
2018-07-20T16:25:44.052Z,5.10
2018-07-20T16:28:11.593Z,4.50
2018-07-20T16:30:39.147Z,4.30
2018-07-20T16:33:06.643Z,5.10
2018-07-20T16:35:34.219Z,5.93
2018-07-20T16:38:01.807Z,4.90
2018-07-20T16:40:29.359Z,4.97
2018-07-20T16:42:56.929Z,4.50
2018-07-20T16:45:24.542Z,5.20
2018-07-20T16:47:52.156Z,5.37
2018-07-20T16:50:19.621Z,4.27
2018-07-20T16:52:47.205Z,5.40
2018-07-20T16:55:14.771Z,5.20
2018-07-20T16:57:42.269Z,5.30
2018-07-20T17:00:09.893Z,4.63
2018-07-20T17:02:44.076Z,4.63
2018-07-20T17:05:11.682Z,4.90
2018-07-20T17:07:39.266Z,4.93
2018-07-20T17:10:06.898Z,5.40
2018-07-20T17:12:34.452Z,5.43
2018-07-20T17:15:02.073Z,4.50
2018-07-20T17:17:29.667Z,5.40
2018-07-20T17:19:57.257Z,4.70
2018-07-20T17:22:24.817Z,5.93
2018-07-20T17:24:52.459Z,6.40
2018-07-20T17:27:20.097Z,5.90
2018-07-20T17:29:47.629Z,4.43
2018-07-20T17:32:15.199Z,4.70
2018-07-20T17:34:42.771Z,5.60
2018-07-20T17:37:10.404Z,4.90
2018-07-20T17:39:38.024Z,5.60
2018-07-20T17:42:05.831Z,5.30
2018-07-20T17:44:33.431Z,5.27
2018-07-20T17:47:01.034Z,4.90
2018-07-20T17:49:28.631Z,5.40
2018-07-20T17:51:56.239Z,6.03
2018-07-20T17:54:23.797Z,5.40
2018-07-20T17:56:51.392Z,5.17
2018-07-20T17:59:18.945Z,6.07
2018-07-20T18:01:46.588Z,6.00
2018-07-20T18:04:14.251Z,5.50
2018-07-20T18:06:41.825Z,6.10
2018-07-20T18:09:10.168Z,5.63
2018-07-20T18:11:37.814Z,5.00
2018-07-20T18:14:05.526Z,5.73
2018-07-20T18:16:33.227Z,6.13
2018-07-20T18:19:01.107Z,5.90
2018-07-20T18:21:28.828Z,6.13
2018-07-20T18:23:57.788Z,5.73
2018-07-20T18:26:25.440Z,5.73
2018-07-20T18:28:53.179Z,6.00
2018-07-20T18:31:20.974Z,5.20
2018-07-20T18:33:48.640Z,5.97
2018-07-20T18:36:16.228Z,5.37
2018-07-20T18:38:43.820Z,5.03
2018-07-20T18:41:11.650Z,5.70
2018-07-20T18:43:39.302Z,5.87
2018-07-20T18:46:06.939Z,6.20
2018-07-20T18:48:34.582Z,7.37
2018-07-20T18:51:03.018Z,6.50
2018-07-20T18:53:30.912Z,5.93
2018-07-20T18:55:58.589Z,6.37
2018-07-20T18:58:26.198Z,6.07
2018-07-20T19:00:53.729Z,6.57
2018-07-20T19:03:21.353Z,5.93
2018-07-20T19:05:51.141Z,6.10
2018-07-20T19:08:18.964Z,5.93
2018-07-20T19:10:47.254Z,6.80
2018-07-20T19:13:14.839Z,5.77
2018-07-20T19:15:42.473Z,6.27
2018-07-20T19:18:10.401Z,6.20
2018-07-20T19:20:38.023Z,8.03
2018-07-20T19:23:05.535Z,6.43
2018-07-20T19:25:33.161Z,6.67
2018-07-20T19:28:01.081Z,6.50
2018-07-20T19:30:28.972Z,6.30
2018-07-20T19:32:56.744Z,6.20
2018-07-20T19:35:24.325Z,6.27
2018-07-20T19:37:51.899Z,6.67
2018-07-20T19:40:19.946Z,7.00
2018-07-20T19:42:47.543Z,6.93
2018-07-20T19:45:15.175Z,6.30
2018-07-20T19:47:42.767Z,7.13
2018-07-20T19:50:10.530Z,7.13
2018-07-20T19:52:39.249Z,7.90
2018-07-20T19:55:07.934Z,7.10
2018-07-20T19:57:35.767Z,9.47
2018-07-20T20:00:05.363Z,7.30
2018-07-20T20:02:33.199Z,6.60
2018-07-20T20:05:00.774Z,7.87
2018-07-20T20:07:28.412Z,7.10
2018-07-20T20:09:56.092Z,7.30
2018-07-20T20:12:23.719Z,7.27
2018-07-20T20:14:51.552Z,7.40
2018-07-20T20:17:19.204Z,7.70
2018-07-20T20:19:46.832Z,7.87
2018-07-20T20:22:14.457Z,7.40
2018-07-20T20:24:42.160Z,8.47
2018-07-20T20:27:09.792Z,7.60
2018-07-20T20:29:37.459Z,7.77
2018-07-20T20:32:05.222Z,8.03
2018-07-20T20:34:32.810Z,8.33
2018-07-20T20:37:00.416Z,7.53
2018-07-20T20:39:28.040Z,8.10
2018-07-20T20:41:55.733Z,8.23
2018-07-20T20:44:23.274Z,8.97
2018-07-20T20:46:50.854Z,10.00
2018-07-20T20:49:18.480Z,11.10
2018-07-20T20:51:46.123Z,10.03
2018-07-20T20:54:13.860Z,10.87
2018-07-20T20:56:41.510Z,10.80
2018-07-20T20:59:09.121Z,9.70
2018-07-20T21:01:36.748Z,9.23
2018-07-20T21:04:04.408Z,9.20
2018-07-20T21:06:32.025Z,7.50
2018-07-20T21:08:59.527Z,7.30
2018-07-20T21:11:27.123Z,8.00
2018-07-20T21:13:54.713Z,8.30
2018-07-20T21:16:22.328Z,7.70
2018-07-20T21:18:49.927Z,8.27
2018-07-20T21:21:17.525Z,7.50
2018-07-20T21:23:45.157Z,7.93
2018-07-20T21:26:12.890Z,6.90
2018-07-20T21:28:40.475Z,7.63
2018-07-20T21:31:08.094Z,6.43
2018-07-20T21:33:35.713Z,7.27
2018-07-20T21:36:03.319Z,8.33
2018-07-20T21:38:30.859Z,8.17
2018-07-20T21:40:58.459Z,8.20
2018-07-20T21:43:26.014Z,8.63
2018-07-20T21:45:53.585Z,8.33
2018-07-20T21:48:21.161Z,7.60
2018-07-20T21:50:48.795Z,7.60
2018-07-20T21:53:16.339Z,7.67
2018-07-20T21:55:43.932Z,7.20
2018-07-20T21:58:11.519Z,7.37
2018-07-20T22:00:39.169Z,6.90
2018-07-20T22:03:06.788Z,7.37
2018-07-20T22:05:34.358Z,7.57
2018-07-20T22:08:01.948Z,6.73
2018-07-20T22:10:29.519Z,7.70
2018-07-20T22:12:57.097Z,7.63
2018-07-20T22:15:24.682Z,7.60
2018-07-20T22:17:52.222Z,7.93
2018-07-20T22:20:19.938Z,7.93
2018-07-20T22:22:47.504Z,8.13
2018-07-20T22:25:15.131Z,8.07
2018-07-20T22:27:42.730Z,8.60
2018-07-20T22:30:10.315Z,8.67
2018-07-20T22:32:37.938Z,7.90
2018-07-20T22:35:05.659Z,9.90
2018-07-20T22:37:33.168Z,8.03
2018-07-20T22:40:00.712Z,6.50
2018-07-20T22:42:28.237Z,6.50
2018-07-20T22:44:55.797Z,7.60
2018-07-20T22:47:23.372Z,6.83
2018-07-20T22:49:51.032Z,7.47
2018-07-20T22:52:18.870Z,7.33
2018-07-20T22:54:46.707Z,7.43
2018-07-20T22:57:14.298Z,7.07
2018-07-20T22:59:41.878Z,7.17
2018-07-20T23:02:09.474Z,8.10
2018-07-20T23:04:37.260Z,7.30
2018-07-20T23:07:04.999Z,7.53
2018-07-20T23:09:32.564Z,8.27
2018-07-20T23:12:00.143Z,8.03
2018-07-20T23:14:27.708Z,8.13
2018-07-20T23:16:55.301Z,8.20
2018-07-20T23:19:22.867Z,8.47
2018-07-20T23:21:50.455Z,8.10
2018-07-20T23:24:17.979Z,7.47
2018-07-20T23:26:45.569Z,7.50
2018-07-20T23:29:13.201Z,7.60
2018-07-20T23:31:40.762Z,7.50
2018-07-20T23:34:08.371Z,7.33
2018-07-20T23:36:35.977Z,6.90
2018-07-20T23:39:05.317Z,7.20
2018-07-20T23:41:32.959Z,6.60
2018-07-20T23:44:00.539Z,7.30
2018-07-20T23:46:28.130Z,6.90
2018-07-20T23:48:55.769Z,7.17
2018-07-20T23:51:23.353Z,7.40
2018-07-20T23:53:50.926Z,6.87
2018-07-20T23:56:18.535Z,7.60
2018-07-20T23:58:46.101Z,7.20
